createdAt,value
2022-11-16T00:02:06.464Z,1.17
2022-11-16T00:04:33.344Z,0.85
2022-11-16T00:07:02.831Z,0.95
2022-11-16T00:09:31.994Z,1.15
2022-11-16T00:12:00.683Z,1.48
2022-11-16T00:14:28.646Z,0.80
2022-11-16T00:16:56.046Z,0.60
2022-11-16T00:19:23.636Z,0.93
2022-11-16T00:21:50.903Z,0.90
2022-11-16T00:24:19.277Z,0.82
2022-11-16T00:26:46.170Z,0.90
2022-11-16T00:29:16.136Z,0.80
2022-11-16T00:31:43.793Z,0.90
2022-11-16T00:34:10.814Z,0.70
2022-11-16T00:36:37.593Z,0.60
2022-11-16T00:39:04.402Z,0.75
2022-11-16T00:41:31.275Z,0.70
2022-11-16T00:43:58.104Z,0.63
2022-11-16T00:46:24.862Z,0.55
2022-11-16T00:48:51.668Z,0.90
2022-11-16T00:51:18.508Z,0.43
2022-11-16T00:53:45.278Z,0.30
2022-11-16T00:56:12.086Z,0.77
2022-11-16T00:58:38.920Z,0.40
2022-11-16T01:01:06.926Z,0.65
2022-11-16T01:03:34.768Z,0.60
2022-11-16T01:06:05.674Z,0.50
2022-11-16T01:08:33.141Z,0.40
2022-11-16T01:11:20.229Z,0.20
2022-11-16T01:13:47.350Z,0.38
2022-11-16T01:16:18.353Z,0.30
2022-11-16T01:18:49.367Z,0.50
2022-11-16T01:21:16.553Z,0.40
2022-11-16T01:23:43.456Z,0.28
2022-11-16T01:26:10.445Z,0.70
2022-11-16T01:28:37.299Z,0.50
2022-11-16T01:31:04.422Z,0.60
2022-11-16T01:33:31.214Z,0.45
2022-11-16T01:35:57.995Z,0.35
2022-11-16T01:38:29.405Z,0.80
2022-11-16T01:40:56.737Z,0.50
2022-11-16T01:43:24.891Z,1.13
2022-11-16T01:45:51.741Z,0.30
2022-11-16T01:48:25.037Z,0.30
2022-11-16T01:50:52.890Z,0.40
2022-11-16T01:53:19.888Z,0.30
2022-11-16T01:55:47.605Z,0.45
2022-11-16T01:58:17.374Z,0.98
2022-11-16T02:00:44.279Z,0.50
2022-11-16T02:03:11.099Z,0.50
2022-11-16T02:05:40.712Z,0.60
2022-11-16T02:08:26.135Z,0.55
2022-11-16T02:11:07.443Z,0.70
2022-11-16T02:13:38.456Z,0.52
2022-11-16T02:16:15.820Z,0.60
2022-11-16T02:18:42.593Z,0.43
2022-11-16T02:21:09.358Z,0.77
2022-11-16T02:23:52.939Z,0.80
2022-11-16T02:26:25.774Z,0.40
2022-11-16T02:29:03.650Z,0.50
2022-11-16T02:33:57.342Z,0.50
2022-11-16T02:36:24.957Z,0.60
2022-11-16T02:38:57.060Z,1.05
2022-11-16T02:41:25.593Z,0.70
2022-11-16T02:44:04.872Z,0.80
2022-11-16T02:46:36.130Z,0.50
2022-11-16T02:49:05.968Z,0.55
2022-11-16T02:51:34.304Z,0.70
2022-11-16T02:54:08.676Z,0.68
2022-11-16T02:57:01.578Z,0.52
2022-11-16T02:59:33.777Z,0.55
2022-11-16T03:02:15.188Z,0.70
2022-11-16T03:04:55.001Z,0.68
2022-11-16T03:07:24.195Z,0.50
2022-11-16T03:09:51.616Z,0.50
2022-11-16T03:12:20.336Z,0.73
2022-11-16T03:14:54.773Z,0.50
2022-11-16T03:17:33.982Z,0.70
2022-11-16T03:20:13.136Z,0.70
2022-11-16T03:22:42.244Z,0.30
2022-11-16T03:25:10.243Z,0.98
2022-11-16T03:27:43.774Z,0.60
2022-11-16T03:30:18.139Z,1.08
2022-11-16T03:32:53.226Z,0.50
2022-11-16T03:35:24.893Z,0.70
2022-11-16T03:40:19.017Z,0.40
2022-11-16T03:42:46.529Z,0.65
2022-11-16T03:45:13.685Z,0.50
2022-11-16T03:47:41.616Z,0.35
2022-11-16T03:50:09.212Z,0.57
2022-11-16T03:52:36.262Z,0.68
2022-11-16T03:55:03.127Z,0.40
2022-11-16T03:57:29.906Z,0.50
2022-11-16T03:59:56.690Z,0.40
2022-11-16T04:02:23.488Z,0.50
2022-11-16T04:05:08.959Z,0.32
2022-11-16T04:07:54.458Z,0.40
2022-11-16T04:10:39.966Z,0.47
2022-11-16T04:13:27.397Z,0.80
2022-11-16T04:16:12.827Z,0.40
2022-11-16T04:18:58.329Z,0.43
2022-11-16T04:21:54.964Z,0.32
2022-11-16T04:24:23.679Z,0.60
2022-11-16T04:27:11.878Z,0.50
2022-11-16T04:29:39.213Z,0.93
2022-11-16T04:32:24.614Z,0.40
2022-11-16T04:35:10.384Z,0.60
2022-11-16T04:37:49.410Z,0.63
2022-11-16T04:40:16.624Z,0.43
2022-11-16T04:42:43.382Z,0.40
2022-11-16T04:45:28.903Z,0.50
2022-11-16T04:47:55.666Z,0.70
2022-11-16T04:50:22.434Z,0.65
2022-11-16T04:52:49.241Z,0.35
2022-11-16T04:55:16.029Z,0.30
2022-11-16T04:57:42.912Z,0.43
2022-11-16T05:00:10.524Z,0.60
2022-11-16T05:02:37.631Z,0.30
2022-11-16T05:05:05.103Z,0.95
2022-11-16T05:07:42.300Z,0.40
2022-11-16T05:10:09.610Z,0.30
2022-11-16T05:12:36.991Z,0.50
2022-11-16T05:15:05.011Z,0.52
2022-11-16T05:17:32.378Z,0.40
2022-11-16T05:20:17.941Z,0.40
2022-11-16T05:22:45.199Z,0.50
2022-11-16T05:25:12.354Z,0.47
2022-11-16T05:27:39.557Z,0.40
2022-11-16T05:30:06.873Z,0.65
2022-11-16T05:32:33.886Z,0.70
2022-11-16T05:35:01.068Z,0.40
2022-11-16T05:37:29.928Z,0.40
2022-11-16T05:39:57.237Z,0.45
2022-11-16T05:42:25.921Z,0.60
2022-11-16T05:44:55.636Z,0.70
2022-11-16T05:47:22.710Z,0.47
2022-11-16T05:49:49.798Z,0.70
2022-11-16T05:52:17.067Z,0.50
2022-11-16T05:54:44.204Z,0.82
2022-11-16T05:57:11.320Z,0.63
2022-11-16T05:59:39.264Z,0.60
2022-11-16T06:02:06.879Z,0.80
2022-11-16T06:04:34.407Z,0.88
2022-11-16T06:07:02.351Z,0.75
2022-11-16T06:09:32.103Z,1.08
2022-11-16T06:11:59.588Z,0.80
2022-11-16T06:14:26.877Z,0.50
2022-11-16T06:16:57.182Z,0.40
2022-11-16T06:21:59.599Z,1.15
2022-11-16T06:24:26.421Z,0.40
2022-11-16T06:26:53.153Z,0.70
2022-11-16T06:29:19.967Z,1.05
2022-11-16T06:31:46.746Z,0.80
2022-11-16T06:34:13.578Z,0.75
2022-11-16T06:36:40.430Z,0.73
2022-11-16T06:39:07.217Z,0.65
2022-11-16T06:41:38.846Z,1.10
2022-11-16T06:44:08.247Z,0.70
2022-11-16T06:46:35.000Z,0.70
2022-11-16T06:49:01.770Z,0.90
2022-11-16T06:51:28.546Z,0.80
2022-11-16T06:53:55.294Z,0.50
2022-11-16T06:56:22.133Z,0.70
2022-11-16T06:58:53.060Z,0.60
2022-11-16T07:01:20.398Z,0.57
2022-11-16T07:03:47.216Z,0.50
2022-11-16T07:06:14.182Z,0.60
2022-11-16T07:08:40.925Z,0.60
2022-11-16T07:11:08.962Z,0.60
2022-11-16T07:13:36.528Z,0.60
2022-11-16T07:16:10.501Z,0.70
2022-11-16T07:18:38.182Z,0.80
2022-11-16T07:21:06.081Z,0.70
2022-11-16T07:23:32.856Z,0.77
2022-11-16T07:26:00.214Z,0.60
2022-11-16T07:28:27.951Z,0.77
2022-11-16T07:30:54.733Z,1.20
2022-11-16T07:33:21.508Z,0.95
2022-11-16T07:35:48.304Z,0.90
2022-11-16T07:38:18.021Z,0.82
2022-11-16T07:40:45.792Z,0.70
2022-11-16T07:43:13.190Z,0.88
2022-11-16T07:45:39.932Z,0.70
2022-11-16T07:48:06.793Z,1.23
2022-11-16T07:50:33.615Z,0.80
2022-11-16T07:53:00.347Z,0.90
2022-11-16T07:55:31.867Z,0.77
2022-11-16T08:00:25.300Z,0.90
2022-11-16T08:02:52.086Z,1.00
2022-11-16T08:05:18.921Z,0.70
2022-11-16T08:07:45.662Z,1.42
2022-11-16T08:10:12.595Z,0.82
2022-11-16T08:12:39.365Z,0.70
2022-11-16T08:15:06.318Z,0.80
2022-11-16T08:17:33.102Z,0.80
2022-11-16T08:19:59.930Z,0.80
2022-11-16T08:22:26.733Z,1.10
2022-11-16T08:24:53.522Z,0.57
2022-11-16T08:27:20.319Z,1.15
2022-11-16T08:29:47.051Z,0.70
2022-11-16T08:32:13.866Z,0.52
2022-11-16T08:34:40.652Z,0.68
2022-11-16T08:37:07.418Z,0.57
2022-11-16T08:39:34.248Z,0.60
2022-11-16T08:42:01.019Z,0.85
2022-11-16T08:44:27.779Z,0.45
2022-11-16T08:46:54.593Z,0.40
2022-11-16T08:49:21.485Z,0.82
2022-11-16T08:51:49.247Z,0.57
2022-11-16T08:54:16.312Z,0.98
2022-11-16T08:56:43.036Z,1.20
2022-11-16T08:59:09.829Z,1.00
2022-11-16T09:01:36.756Z,0.80
2022-11-16T09:04:03.736Z,0.88
2022-11-16T09:06:30.483Z,1.15
2022-11-16T09:08:57.357Z,1.00
2022-11-16T09:11:25.042Z,1.08
2022-11-16T09:13:52.885Z,1.00
2022-11-16T09:16:21.102Z,0.80
2022-11-16T09:18:48.821Z,1.30
2022-11-16T09:21:19.700Z,1.00
2022-11-16T09:23:47.032Z,1.00
2022-11-16T09:26:13.874Z,1.00
2022-11-16T09:28:40.692Z,0.80
2022-11-16T09:31:08.147Z,0.95
2022-11-16T09:33:35.235Z,0.68
2022-11-16T09:36:06.850Z,1.05
2022-11-16T09:39:13.980Z,0.70
2022-11-16T09:41:30.338Z,0.73
2022-11-16T09:44:06.343Z,0.60
2022-11-16T09:46:35.449Z,0.80
2022-11-16T09:49:04.023Z,0.45
2022-11-16T09:51:32.881Z,0.80
2022-11-16T09:54:06.036Z,0.90
2022-11-16T09:56:35.784Z,0.60
2022-11-16T09:59:05.735Z,0.60
2022-11-16T10:01:34.784Z,0.65
2022-11-16T10:04:11.002Z,1.38
2022-11-16T10:06:37.803Z,0.57
2022-11-16T10:09:05.009Z,0.30
2022-11-16T10:11:45.434Z,1.00
2022-11-16T10:14:31.063Z,0.60
2022-11-16T10:17:07.247Z,0.35
2022-11-16T10:19:54.367Z,0.47
2022-11-16T10:22:39.980Z,0.40
2022-11-16T10:25:11.813Z,0.50
2022-11-16T10:27:44.603Z,0.85
2022-11-16T10:30:14.386Z,0.55
2022-11-16T10:32:46.920Z,0.93
2022-11-16T10:35:19.900Z,0.47
2022-11-16T10:37:48.192Z,0.63
2022-11-16T10:40:20.546Z,0.50
2022-11-16T10:42:52.067Z,0.40
2022-11-16T10:45:21.695Z,0.80
2022-11-16T10:48:00.655Z,0.90
2022-11-16T10:50:32.378Z,0.60
2022-11-16T10:52:59.667Z,0.82
2022-11-16T10:55:28.705Z,0.60
2022-11-16T10:58:00.570Z,1.05
2022-11-16T11:00:35.537Z,1.15
2022-11-16T11:03:02.753Z,5.45
2022-11-16T11:05:29.844Z,1.00
2022-11-16T11:08:10.995Z,0.43
2022-11-16T11:10:38.903Z,0.68
2022-11-16T11:13:11.693Z,0.68
2022-11-16T11:15:42.424Z,0.45
2022-11-16T11:18:24.346Z,0.52
2022-11-16T11:20:52.778Z,0.47
2022-11-16T11:23:19.508Z,0.90
2022-11-16T11:25:51.415Z,0.60
2022-11-16T11:28:20.998Z,0.55
2022-11-16T11:30:56.901Z,0.55
2022-11-16T11:33:24.457Z,0.50
2022-11-16T11:36:08.693Z,0.35
2022-11-16T11:38:54.719Z,0.50
2022-11-16T11:41:21.617Z,0.30
2022-11-16T11:44:00.914Z,0.77
2022-11-16T11:46:50.181Z,0.60
2022-11-16T11:49:33.863Z,0.80
2022-11-16T11:52:06.090Z,0.60
2022-11-16T11:54:35.907Z,0.70
2022-11-16T11:57:03.294Z,0.57
2022-11-16T11:59:30.218Z,1.30
2022-11-16T12:02:00.015Z,0.75
2022-11-16T12:04:39.370Z,0.70
2022-11-16T12:07:12.372Z,0.57
2022-11-16T12:09:57.881Z,0.80
2022-11-16T12:12:27.740Z,1.00
2022-11-16T12:15:06.656Z,0.57
2022-11-16T12:17:45.459Z,0.90
2022-11-16T12:20:30.993Z,0.52
2022-11-16T12:23:16.089Z,0.88
2022-11-16T12:25:42.833Z,0.73
2022-11-16T12:28:15.721Z,0.75
2022-11-16T12:30:51.739Z,0.90
2022-11-16T12:33:18.498Z,0.85
2022-11-16T12:35:53.194Z,0.73
2022-11-16T12:38:27.616Z,0.70
2022-11-16T12:41:00.442Z,0.85
2022-11-16T12:43:43.098Z,0.75
2022-11-16T12:46:12.931Z,0.60
2022-11-16T12:48:59.158Z,0.70
2022-11-16T12:51:44.847Z,0.80
2022-11-16T12:54:30.370Z,0.80
2022-11-16T12:57:17.574Z,0.60
2022-11-16T12:59:44.298Z,1.00
2022-11-16T13:02:23.476Z,1.35
2022-11-16T13:04:57.571Z,1.05
2022-11-16T13:07:48.033Z,0.90
2022-11-16T13:10:31.499Z,1.10
2022-11-16T13:13:29.717Z,0.80
2022-11-16T13:15:48.031Z,1.10
2022-11-16T13:18:17.159Z,1.02
2022-11-16T13:20:49.726Z,0.77
2022-11-16T13:23:19.591Z,1.20
2022-11-16T13:26:10.530Z,1.00
2022-11-16T13:28:42.578Z,1.10
2022-11-16T13:31:21.462Z,1.35
2022-11-16T13:33:51.175Z,1.00
2022-11-16T13:36:43.774Z,0.70
2022-11-16T13:39:15.781Z,0.88
2022-11-16T13:41:47.079Z,1.00
2022-11-16T13:44:21.807Z,0.95
2022-11-16T13:46:58.178Z,0.80
2022-11-16T13:49:36.709Z,0.98
2022-11-16T13:52:22.716Z,0.95
2022-11-16T13:54:53.179Z,1.00
2022-11-16T13:57:29.640Z,1.10
2022-11-16T13:59:56.397Z,1.10
2022-11-16T14:02:34.302Z,1.15
2022-11-16T14:05:02.164Z,1.00
2022-11-16T14:07:29.299Z,1.25
2022-11-16T14:09:56.201Z,1.10
2022-11-16T14:12:38.508Z,1.35
2022-11-16T14:15:22.039Z,1.40
2022-11-16T14:17:57.926Z,1.25
2022-11-16T14:20:30.560Z,1.42
2022-11-16T14:22:57.301Z,1.40
2022-11-16T14:25:33.310Z,1.10
2022-11-16T14:28:04.749Z,1.00
2022-11-16T14:32:58.621Z,0.90
2022-11-16T14:35:30.358Z,1.20
2022-11-16T14:37:58.210Z,1.20
2022-11-16T14:40:25.236Z,0.90
2022-11-16T14:43:16.098Z,1.20
2022-11-16T14:45:47.335Z,1.20
2022-11-16T14:48:15.716Z,1.27
2022-11-16T14:50:46.700Z,1.10
2022-11-16T14:53:16.080Z,1.35
2022-11-16T14:55:43.725Z,1.02
2022-11-16T14:58:10.641Z,1.48
2022-11-16T15:00:38.424Z,2.10
2022-11-16T15:03:05.681Z,1.85
2022-11-16T15:05:36.506Z,1.98
2022-11-16T15:08:06.067Z,1.90
2022-11-16T15:10:32.867Z,1.90
2022-11-16T15:13:00.339Z,1.60
2022-11-16T15:15:28.750Z,1.63
2022-11-16T15:18:07.235Z,1.60
2022-11-16T15:20:35.952Z,1.35
2022-11-16T15:23:04.252Z,1.92
2022-11-16T15:25:34.154Z,1.63
2022-11-16T15:28:15.078Z,1.67
2022-11-16T15:30:45.011Z,1.40
2022-11-16T15:33:16.545Z,1.58
2022-11-16T15:35:43.748Z,1.80
2022-11-16T15:38:13.927Z,1.77
2022-11-16T15:40:42.953Z,1.40
2022-11-16T15:43:10.539Z,1.23
2022-11-16T15:45:37.920Z,1.90
2022-11-16T15:48:05.208Z,1.58
2022-11-16T15:50:31.997Z,2.05
2022-11-16T15:52:59.911Z,2.00
2022-11-16T15:55:38.703Z,1.52
2022-11-16T15:58:18.643Z,1.30
2022-11-16T16:00:48.261Z,1.20
2022-11-16T16:03:17.829Z,1.58
2022-11-16T16:05:44.657Z,1.42
2022-11-16T16:08:26.716Z,1.13
2022-11-16T16:10:57.742Z,1.13
2022-11-16T16:13:26.985Z,1.40
2022-11-16T16:16:13.046Z,1.73
2022-11-16T16:18:43.374Z,1.67
2022-11-16T16:21:10.447Z,1.90
2022-11-16T16:23:56.212Z,1.77
2022-11-16T16:26:23.296Z,1.40
2022-11-16T16:28:50.417Z,1.67
2022-11-16T16:31:17.829Z,1.95
2022-11-16T16:33:44.578Z,2.03
2022-11-16T16:36:14.311Z,1.70
2022-11-16T16:38:41.335Z,1.92
2022-11-16T16:41:08.571Z,2.55
2022-11-16T16:43:35.794Z,2.15
2022-11-16T16:46:03.430Z,2.40
2022-11-16T16:48:30.497Z,2.03
2022-11-16T16:50:57.398Z,1.90
2022-11-16T16:53:24.271Z,2.10
2022-11-16T16:55:53.706Z,1.80
2022-11-16T16:58:20.538Z,2.10
2022-11-16T17:00:47.346Z,2.50
2022-11-16T17:03:14.224Z,2.90
2022-11-16T17:05:41.006Z,1.42
2022-11-16T17:08:07.950Z,1.70
2022-11-16T17:10:36.898Z,2.05
2022-11-16T17:13:03.905Z,3.05
2022-11-16T17:15:30.767Z,2.75
2022-11-16T17:17:58.969Z,1.80
2022-11-16T17:20:26.033Z,1.55
2022-11-16T17:22:53.451Z,2.20
2022-11-16T17:25:20.848Z,2.05
2022-11-16T17:27:47.915Z,1.70
2022-11-16T17:30:15.151Z,2.15
2022-11-16T17:32:41.965Z,1.45
2022-11-16T17:35:09.102Z,2.10
2022-11-16T17:37:35.940Z,1.70
2022-11-16T17:40:02.812Z,1.80
2022-11-16T17:42:29.537Z,1.90
2022-11-16T17:44:56.359Z,1.77
2022-11-16T17:47:23.108Z,1.33
2022-11-16T17:49:49.848Z,1.75
2022-11-16T17:52:16.647Z,1.63
2022-11-16T17:54:43.393Z,2.00
2022-11-16T17:57:10.230Z,1.83
2022-11-16T17:59:37.056Z,1.75
2022-11-16T18:02:03.822Z,1.52
2022-11-16T18:04:30.623Z,2.00
2022-11-16T18:06:57.599Z,1.98
2022-11-16T18:09:24.450Z,1.42
2022-11-16T18:11:51.198Z,1.88
2022-11-16T18:14:18.058Z,1.98
2022-11-16T18:16:47.825Z,2.33
2022-11-16T18:19:16.475Z,1.67
2022-11-16T18:21:43.859Z,1.48
2022-11-16T18:24:11.280Z,1.80
2022-11-16T18:26:38.883Z,2.78
2022-11-16T18:29:07.053Z,2.38
2022-11-16T18:31:34.033Z,2.83
2022-11-16T18:34:01.511Z,2.28
2022-11-16T18:36:28.348Z,2.15
2022-11-16T18:38:55.139Z,1.90
2022-11-16T18:41:23.848Z,2.55
2022-11-16T18:43:54.932Z,2.10
2022-11-16T18:46:25.897Z,2.47
2022-11-16T18:48:52.698Z,2.17
2022-11-16T18:51:20.086Z,2.28
2022-11-16T18:53:47.215Z,1.73
2022-11-16T18:56:14.290Z,1.90
2022-11-16T18:58:50.723Z,1.70
2022-11-16T19:01:18.793Z,4.10
2022-11-16T19:03:45.778Z,2.15
2022-11-16T19:06:12.698Z,1.52
2022-11-16T19:08:41.273Z,1.90
2022-11-16T19:11:09.422Z,2.35
2022-11-16T19:13:36.789Z,2.00
2022-11-16T19:16:03.931Z,1.95
2022-11-16T19:18:30.901Z,2.10
2022-11-16T19:21:04.623Z,1.88
2022-11-16T19:23:35.105Z,1.88
2022-11-16T19:26:04.476Z,2.00
2022-11-16T19:28:34.918Z,1.70
2022-11-16T19:31:05.948Z,2.08
2022-11-16T19:33:32.909Z,1.92
2022-11-16T19:36:05.400Z,2.15
2022-11-16T19:38:32.153Z,2.15
2022-11-16T19:40:58.890Z,2.53
2022-11-16T19:43:25.704Z,1.85
2022-11-16T19:45:52.474Z,1.95
2022-11-16T19:48:19.251Z,1.80
2022-11-16T19:50:46.097Z,1.98
2022-11-16T19:53:21.824Z,4.78
2022-11-16T19:55:54.974Z,2.17
2022-11-16T19:58:21.748Z,2.67
2022-11-16T20:00:48.695Z,1.50
2022-11-16T20:03:15.618Z,1.63
2022-11-16T20:05:42.370Z,2.17
2022-11-16T20:08:09.933Z,1.88
2022-11-16T20:10:36.807Z,1.98
2022-11-16T20:13:03.625Z,1.80
2022-11-16T20:15:30.426Z,1.80
2022-11-16T20:17:57.248Z,2.30
2022-11-16T20:20:24.040Z,1.80
2022-11-16T20:22:50.949Z,4.50
2022-11-16T20:25:17.838Z,1.70
2022-11-16T20:27:44.678Z,1.85
2022-11-16T20:30:11.608Z,2.08
2022-11-16T20:32:38.416Z,2.38
2022-11-16T20:35:05.330Z,2.40
2022-11-16T20:37:32.124Z,1.85
2022-11-16T20:39:59.462Z,2.15
2022-11-16T20:42:26.353Z,1.83
2022-11-16T20:44:53.157Z,1.85
2022-11-16T20:47:19.956Z,1.85
2022-11-16T20:49:46.735Z,2.00
2022-11-16T20:52:13.486Z,1.58
2022-11-16T20:54:42.142Z,2.00
2022-11-16T20:57:08.983Z,2.03
2022-11-16T20:59:35.787Z,1.92
2022-11-16T21:02:02.596Z,1.80
2022-11-16T21:04:29.374Z,1.70
2022-11-16T21:06:57.763Z,1.30
2022-11-16T21:09:25.809Z,1.30
2022-11-16T21:12:11.254Z,1.45
2022-11-16T21:14:38.135Z,1.65
2022-11-16T21:17:05.054Z,1.48
2022-11-16T21:19:31.848Z,1.83
2022-11-16T21:21:58.617Z,1.73
2022-11-16T21:24:27.554Z,1.80
2022-11-16T21:26:54.415Z,1.65
2022-11-16T21:29:25.918Z,1.70
2022-11-16T21:34:20.296Z,1.70
2022-11-16T21:36:47.662Z,3.38
2022-11-16T21:39:14.451Z,1.73
2022-11-16T21:41:41.258Z,1.55
2022-11-16T21:44:08.576Z,1.48
2022-11-16T21:46:35.407Z,2.10
2022-11-16T21:49:02.263Z,2.80
2022-11-16T21:51:30.945Z,2.00
2022-11-16T21:53:57.833Z,1.98
2022-11-16T21:56:25.304Z,1.70
2022-11-16T21:58:53.144Z,3.80
2022-11-16T22:01:20.284Z,4.00
2022-11-16T22:04:09.559Z,2.88
2022-11-16T22:06:55.086Z,1.75
2022-11-16T22:09:21.917Z,1.45
2022-11-16T22:11:48.801Z,1.40
2022-11-16T22:14:15.667Z,1.50
2022-11-16T22:16:42.500Z,1.52
2022-11-16T22:19:09.323Z,1.50
2022-11-16T22:21:36.173Z,1.92
2022-11-16T22:24:03.057Z,1.73
2022-11-16T22:26:29.844Z,1.60
2022-11-16T22:28:58.010Z,1.50
2022-11-16T22:31:24.833Z,1.70
2022-11-16T22:33:52.601Z,1.55
2022-11-16T22:36:19.357Z,1.60
2022-11-16T22:38:46.096Z,1.75
2022-11-16T22:41:13.111Z,1.58
2022-11-16T22:43:40.135Z,1.90
2022-11-16T22:46:07.118Z,1.75
2022-11-16T22:48:38.420Z,1.70
2022-11-16T22:51:07.062Z,2.10
2022-11-16T22:53:34.681Z,2.20
2022-11-16T22:56:08.734Z,2.13
2022-11-16T22:58:35.914Z,2.00
2022-11-16T23:01:02.844Z,1.83
2022-11-16T23:03:29.865Z,1.90
2022-11-16T23:05:56.815Z,2.40
2022-11-16T23:08:25.015Z,1.77
2022-11-16T23:11:23.988Z,1.92
2022-11-16T23:14:10.596Z,1.88
2022-11-16T23:16:37.963Z,1.70
2022-11-16T23:19:28.153Z,1.80
2022-11-16T23:22:14.323Z,1.67
2022-11-16T23:24:59.824Z,1.77
2022-11-16T23:27:31.616Z,1.90
2022-11-16T23:30:04.446Z,1.60
2022-11-16T23:32:33.536Z,1.75
2022-11-16T23:35:00.311Z,1.60
2022-11-16T23:37:27.212Z,2.30
2022-11-16T23:39:54.063Z,1.85
2022-11-16T23:42:39.507Z,1.80
2022-11-16T23:45:06.693Z,1.50
2022-11-16T23:47:33.515Z,1.60
2022-11-16T23:50:00.284Z,1.70
2022-11-16T23:52:27.304Z,1.20
2022-11-16T23:54:54.140Z,1.70
2022-11-16T23:57:20.904Z,1.48
2022-11-16T23:59:47.714Z,1.90
